Asheboro, NC

2:49 PM EDT on September 01, 2014 (GMT -0400)
KNCASHEB5 | Change Station
CLOSE
Current Station
Personal Weather Station
Location: Asheboro, NC
Elevation: 780 ft
Nearby Weather Stations

Elev 780 ft 35.63 °N, 79.76 °W | Updated 13 minutes ago

Clear
Clear
91.4 °F
Feels Like 97 °F
N
0.0
Wind Variable Wind from SSW

Today
High -- | Low -- °F
--% Chance of Precip.
Yesterday
High -- | Low -- °F
Precip. -- in
6:51 AM 7:46 PM
Waxing Crescent, 43% visible
Pressure 30.11 in
Visibility 10.0 miles
Clouds Clear
Heat Index 97 °F
Dew Point 70 °F
Humidity 50%
Rainfall 0.00 in
Snow Depth Not available.
UV 7.2 out of 12
Pollen 9.60 out of 12
Ozone Good
PM2.5 Moderate
Flu Activity Not available.
METAR KHBI 011835Z AUTO 00000KT 10SM CLR 33/17 A3011 RMK AO2 T03250169

More Conditions Fewer Conditions

Pressure 30.11 in
Visibility 10.0 miles
Clouds Clear
Heat Index 97 °F
Dew Point 70 °F
Humidity 50%
Rainfall 0.00 in
Snow Depth Not available.
UV 7.2 out of 12
Pollen 9.60 out of 12
Ozone Good
PM2.5 Moderate
Flu Activity Not available.
METAR KHBI 011835Z AUTO 00000KT 10SM CLR 33/17 A3011 RMK AO2 T03250169

More Conditions Fewer Conditions

10-Day Weather Forecast

Almanac

Astronomy

Sep. 01, 2014 Rise Set
Actual Time 6:51 AM EDT 7:46 PM EDT
Civil Twilight 6:25 AM EDT 8:12 PM EDT
Nautical Twilight 5:54 AM EDT 8:43 PM EDT
Astronomical Twilight 5:22 AM EDT 9:15 PM EDT
Moon 1:21 PM EDT No Moon Set
Length of Visible Light 13h 47m
Length of Day
12h 55m
Tomorrow will be 2m 9s shorter.
Waxing Crescent, 43% of the Moon is Illuminated
Today
Waxing Crescent
Sep 2
First Quarter
Sep 8
Full
Sep 15
Last Quarter
Sep 24
New

Today's Extremes

State Highs State Lows

Community

WunderPhotos

Upload Photos

1,749,359 photos uploaded!

Nearby

Air Quality

  Air Quality AQ Index Pollutant
Yesterday Good
OZONE
Yesterday Good
PM2.5
Current Moderate
PM2.5
Current Good
OZONE
Monday Good
OZONE
Monday Good
PM2.5
Tuesday Good
OZONE
Tuesday Good
PM2.5
Wednesday Good
OZONE
Wednesday Good
PM2.5
Thursday Good
PM2.5
Thursday Good
OZONE

Snow Depth

Station Depth Elevation
No new snow has been reported.

Earthquake Activity

City Distance Mag. Time & Date
No recent earthquake activity has been reported nearby.
Minimum magnitude displayed is 2.5.

Coastal Water Temperatures

Place Temperature
No Stations Reporting

Nearby Weather Stations